Time;durP1;ratioP1;P1;durP2;ratioP2;P2;SDS_P1;SDS_P2;PMS_P1;PMS_P2;Temp;Humidity;BMP_temperature;BMP_pressure;BME280_temperature;BME280_humidity;BME280_pressure;Samples;Min_cycle;Max_cycle;Signal;HPM_P1;HPM_P2
2023/04/25 00:02:16;;;;;;;21.23;4.72;;;6.10;99.90;;;;;;5139403;27;20389;-58
2023/04/25 00:04:41;;;;;;;23.77;3.83;;;6.30;99.90;;;;;;5156732;27;20465;-54
2023/04/25 00:07:07;;;;;;;16.70;3.53;;;6.00;99.90;;;;;;5154010;27;20516;-57
2023/04/25 00:09:33;;;;;;;14.30;3.88;;;5.90;99.90;;;;;;5161578;27;20038;-56
2023/04/25 00:11:59;;;;;;;16.27;3.90;;;6.10;99.90;;;;;;5165658;27;20038;-56
2023/04/25 00:14:25;;;;;;;18.83;3.63;;;5.90;99.90;;;;;;5163343;27;20041;-55
2023/04/25 00:16:52;;;;;;;16.90;3.85;;;6.00;99.90;;;;;;5157767;27;20045;-55
2023/04/25 00:19:17;;;;;;;19.90;4.68;;;5.90;99.90;;;;;;5161348;27;20104;-55
2023/04/25 00:21:46;;;;;;;18.20;4.03;;;5.80;99.90;;;;;;5159722;27;20550;-53
2023/04/25 00:24:12;;;;;;;21.90;4.32;;;5.90;99.90;;;;;;5163058;27;20037;-57
2023/04/25 00:26:37;;;;;;;23.10;4.53;;;5.80;99.90;;;;;;5142015;27;20042;-55
2023/04/25 00:29:03;;;;;;;22.58;4.00;;;5.80;99.90;;;;;;5137817;27;20227;-53
2023/04/25 00:31:30;;;;;;;17.25;4.53;;;5.80;99.90;;;;;;5160855;27;20038;-55
2023/04/25 00:33:56;;;;;;;18.88;3.95;;;5.70;99.90;;;;;;5143515;27;20054;-56
2023/04/25 00:36:22;;;;;;;20.17;3.92;;;5.70;99.90;;;;;;5142028;27;20030;-56
2023/04/25 00:38:47;;;;;;;14.70;3.90;;;5.60;99.90;;;;;;5156871;27;20050;-56
2023/04/25 00:41:13;;;;;;;18.48;3.97;;;5.70;99.90;;;;;;5149797;27;20455;-57
2023/04/25 00:43:40;;;;;;;16.90;3.95;;;5.70;99.90;;;;;;5149799;27;20114;-56
2023/04/25 00:46:05;;;;;;;19.67;4.00;;;5.70;99.90;;;;;;5165985;27;20050;-55
2023/04/25 00:48:31;;;;;;;21.55;3.95;;;5.70;99.90;;;;;;5146027;27;20041;-54
2023/04/25 00:50:58;;;;;;;20.90;3.80;;;5.70;99.90;;;;;;5166582;27;20040;-57
2023/04/25 00:53:26;;;;;;;16.45;3.83;;;5.70;99.90;;;;;;5161740;27;20052;-54
2023/04/25 00:55:53;;;;;;;17.00;4.47;;;5.70;99.90;;;;;;5146704;27;20134;-57
2023/04/25 00:58:20;;;;;;;17.40;3.50;;;5.80;99.90;;;;;;5157046;27;20037;-57
2023/04/25 01:00:47;;;;;;;21.00;3.75;;;5.60;99.90;;;;;;5134133;27;20396;-57
2023/04/25 01:03:17;;;;;;;16.63;3.15;;;5.60;99.90;;;;;;5145755;27;20473;-57
2023/04/25 01:05:43;;;;;;;13.23;3.05;;;5.80;99.90;;;;;;5148648;27;20102;-58
2023/04/25 01:08:09;;;;;;;20.05;3.85;;;5.50;99.90;;;;;;5166435;27;20471;-57
2023/04/25 01:10:36;;;;;;;20.00;3.95;;;5.60;99.90;;;;;;5168592;27;20090;-53
2023/04/25 01:13:02;;;;;;;18.10;3.55;;;5.60;99.90;;;;;;5133503;27;20034;-57
2023/04/25 01:15:28;;;;;;;14.32;4.13;;;5.60;99.90;;;;;;5159942;27;20508;-55
2023/04/25 01:17:55;;;;;;;19.58;4.00;;;5.70;99.90;;;;;;5117152;27;20034;-56
2023/04/25 01:20:24;;;;;;;16.50;4.13;;;5.70;99.90;;;;;;5155562;27;20054;-57
2023/04/25 01:22:54;;;;;;;23.85;4.82;;;5.70;99.90;;;;;;5156223;27;20088;-54
2023/04/25 01:25:21;;;;;;;13.73;4.10;;;5.70;99.90;;;;;;5164778;27;20874;-56
2023/04/25 01:27:47;;;;;;;14.40;4.13;;;5.80;99.90;;;;;;5167192;27;20030;-55
2023/04/25 01:30:13;;;;;;;15.98;3.90;;;5.60;99.90;;;;;;5154478;27;20475;-58
2023/04/25 01:32:40;;;;;;;17.30;4.07;;;5.60;99.90;;;;;;5167019;27;20113;-51
2023/04/25 01:35:09;;;;;;;15.07;3.75;;;5.70;99.90;;;;;;5159663;27;20049;-54
2023/04/25 01:37:41;;;;;;;14.55;3.22;;;5.70;99.90;;;;;;5164376;27;20148;-53
2023/04/25 01:40:09;;;;;;;22.02;3.83;;;5.70;99.90;;;;;;5158654;27;20542;-55
2023/04/25 01:42:37;;;;;;;17.13;3.88;;;5.70;99.90;;;;;;5171081;27;20038;-53
2023/04/25 01:45:05;;;;;;;20.08;3.90;;;5.70;99.90;;;;;;5170603;27;20046;-55
2023/04/25 01:47:31;;;;;;;12.93;3.67;;;5.70;99.90;;;;;;5138692;27;20428;-53
2023/04/25 01:49:56;;;;;;;18.00;3.80;;;5.80;99.90;;;;;;5147102;27;20045;-56
2023/04/25 01:52:22;;;;;;;16.27;3.95;;;5.70;99.90;;;;;;5164266;27;20035;-55
2023/04/25 01:54:49;;;;;;;17.88;4.18;;;5.80;99.90;;;;;;5171516;27;20030;-54
2023/04/25 01:57:15;;;;;;;21.38;4.10;;;5.80;99.90;;;;;;5156941;27;20126;-53
2023/04/25 01:59:43;;;;;;;20.50;4.97;;;5.80;99.90;;;;;;5160053;27;20530;-53
2023/04/25 02:02:09;;;;;;;17.05;4.00;;;5.90;99.90;;;;;;5151970;27;20118;-57
2023/04/25 02:04:35;;;;;;;17.15;4.10;;;5.90;99.90;;;;;;5133770;27;20430;-54
2023/04/25 02:07:01;;;;;;;18.20;3.80;;;5.80;99.90;;;;;;5140031;27;20111;-55
2023/04/25 02:09:26;;;;;;;17.50;3.80;;;5.80;99.90;;;;;;5157610;27;20069;-57
2023/04/25 02:11:53;;;;;;;16.08;3.33;;;5.80;99.90;;;;;;5161742;27;20050;-55
2023/04/25 02:14:18;;;;;;;20.33;3.60;;;5.90;99.90;;;;;;5174428;27;20096;-55
2023/04/25 02:16:44;;;;;;;15.95;3.67;;;5.80;99.90;;;;;;5136694;27;20043;-53
2023/04/25 02:19:10;;;;;;;19.35;3.60;;;5.80;99.90;;;;;;5151387;27;20078;-55
2023/04/25 02:21:36;;;;;;;18.38;3.50;;;5.90;99.90;;;;;;5168304;27;20043;-54
2023/04/25 02:24:02;;;;;;;13.98;3.67;;;5.80;99.90;;;;;;5161979;27;20464;-55
2023/04/25 02:26:29;;;;;;;14.48;3.88;;;5.80;99.90;;;;;;5159105;27;20030;-50
2023/04/25 02:28:56;;;;;;;19.35;3.65;;;5.80;99.90;;;;;;5168669;27;20407;-55
2023/04/25 02:31:22;;;;;;;19.42;4.07;;;5.80;99.90;;;;;;5170834;27;20038;-57
2023/04/25 02:33:48;;;;;;;24.33;3.85;;;5.80;99.90;;;;;;5158320;27;20099;-56
2023/04/25 02:36:13;;;;;;;17.05;3.67;;;5.80;99.90;;;;;;5148572;27;20481;-54
2023/04/25 02:38:39;;;;;;;15.82;3.45;;;5.90;99.90;;;;;;5161737;27;20097;-55
2023/04/25 02:41:05;;;;;;;19.05;3.78;;;5.70;99.90;;;;;;5165758;27;20039;-52
2023/04/25 02:43:30;;;;;;;23.70;4.00;;;5.70;99.90;;;;;;5163617;27;20030;-55
2023/04/25 02:45:56;;;;;;;15.93;3.28;;;5.70;99.90;;;;;;5170264;27;20081;-55
2023/04/25 02:48:22;;;;;;;14.60;2.70;;;5.70;99.90;;;;;;5171519;27;20033;-54
2023/04/25 02:50:48;;;;;;;11.45;3.25;;;5.70;99.90;;;;;;5149864;27;20521;-55
2023/04/25 02:53:13;;;;;;;11.05;2.60;;;5.70;99.90;;;;;;5161542;27;20484;-57
2023/04/25 02:55:39;;;;;;;14.30;3.17;;;5.70;99.90;;;;;;5165954;27;20035;-55
2023/04/25 02:58:05;;;;;;;13.50;2.83;;;5.80;99.90;;;;;;5159311;27;20082;-55
2023/04/25 03:00:30;;;;;;;16.25;2.70;;;5.70;99.90;;;;;;5148822;27;20045;-55
2023/04/25 03:02:56;;;;;;;11.88;2.83;;;5.70;99.90;;;;;;5151592;27;20486;-56
2023/04/25 03:05:22;;;;;;;12.20;2.60;;;5.70;99.90;;;;;;5161450;27;20035;-56
2023/04/25 03:07:48;;;;;;;16.00;2.60;;;5.70;99.90;;;;;;5161750;27;20031;-56
2023/04/25 03:10:13;;;;;;;15.50;2.95;;;5.70;99.90;;;;;;5149851;27;20086;-55
2023/04/25 03:12:39;;;;;;;18.88;2.40;;;5.70;99.90;;;;;;5141369;27;20038;-56
2023/04/25 03:15:05;;;;;;;17.25;3.13;;;5.70;99.90;;;;;;5170440;27;20026;-54
2023/04/25 03:17:31;;;;;;;15.18;3.00;;;5.70;99.90;;;;;;5137466;27;20046;-54
2023/04/25 03:19:57;;;;;;;14.15;3.88;;;5.60;99.90;;;;;;5141682;27;21238;-54
2023/04/25 03:22:24;;;;;;;14.90;2.22;;;5.60;99.90;;;;;;5159664;27;20030;-56
2023/04/25 03:24:50;;;;;;;11.45;2.30;;;5.60;99.90;;;;;;5166710;27;20037;-56
2023/04/25 03:27:16;;;;;;;10.88;2.85;;;5.60;99.90;;;;;;5158411;27;20118;-55
2023/04/25 03:29:42;;;;;;;18.52;2.78;;;5.60;99.90;;;;;;5167870;27;20455;-55
2023/04/25 03:32:07;;;;;;;11.15;2.20;;;5.60;99.90;;;;;;5161052;27;20155;-56
2023/04/25 03:34:33;;;;;;;15.98;2.33;;;5.60;99.90;;;;;;5174911;27;20125;-54
2023/04/25 03:36:59;;;;;;;15.13;2.15;;;5.60;99.90;;;;;;5147412;27;20035;-57
2023/04/25 03:39:25;;;;;;;12.60;2.22;;;5.60;99.90;;;;;;5169530;27;20109;-53
2023/04/25 03:41:51;;;;;;;10.02;2.17;;;5.60;99.90;;;;;;5161780;27;20109;-57
2023/04/25 03:44:17;;;;;;;17.17;2.33;;;5.50;99.90;;;;;;5168795;27;20490;-54
2023/04/25 03:46:42;;;;;;;11.60;2.35;;;5.50;99.90;;;;;;5163070;27;20066;-54
2023/04/25 03:49:08;;;;;;;10.57;2.75;;;5.40;99.90;;;;;;5154678;27;20042;-55
2023/04/25 03:51:34;;;;;;;11.13;1.85;;;5.50;99.90;;;;;;5152242;27;20071;-54
2023/04/25 03:54:00;;;;;;;12.00;2.30;;;5.40;99.90;;;;;;5135507;27;20038;-56
2023/04/25 03:56:25;;;;;;;10.13;1.80;;;5.40;99.90;;;;;;5138637;27;20042;-55
2023/04/25 03:58:51;;;;;;;19.40;2.45;;;5.40;99.90;;;;;;5159295;27;20062;-56
2023/04/25 04:01:17;;;;;;;11.18;2.30;;;5.40;99.90;;;;;;5153109;27;20098;-57
2023/04/25 04:03:42;;;;;;;13.00;1.98;;;5.40;99.90;;;;;;5162732;27;20034;-55
2023/04/25 04:06:08;;;;;;;12.50;2.03;;;5.40;99.90;;;;;;5158514;27;20076;-54
2023/04/25 04:08:35;;;;;;;20.08;2.95;;;5.40;99.90;;;;;;5149361;27;20027;-54
2023/04/25 04:11:01;;;;;;;8.10;1.90;;;5.30;99.90;;;;;;5153134;27;20089;-55
2023/04/25 04:13:27;;;;;;;15.73;2.22;;;5.40;99.90;;;;;;5157408;27;20433;-54
2023/04/25 04:15:53;;;;;;;12.55;2.28;;;5.30;99.90;;;;;;5161795;27;20041;-56
2023/04/25 04:18:19;;;;;;;11.73;2.17;;;5.30;99.90;;;;;;5163267;27;20095;-54
2023/04/25 04:20:45;;;;;;;12.02;2.30;;;5.40;99.90;;;;;;5163631;27;20042;-55
2023/04/25 04:23:11;;;;;;;7.90;1.75;;;5.40;99.90;;;;;;5132801;27;20035;-55
2023/04/25 04:25:37;;;;;;;13.07;2.40;;;5.30;99.90;;;;;;5135470;27;20041;-54
2023/04/25 04:28:03;;;;;;;8.02;2.08;;;5.30;99.90;;;;;;5159671;27;20027;-53
2023/04/25 04:30:33;;;;;;;11.88;2.45;;;5.30;99.90;;;;;;5169126;27;20026;-57
2023/04/25 04:33:00;;;;;;;16.20;3.03;;;5.30;99.90;;;;;;5132296;27;20043;-57
2023/04/25 04:35:26;;;;;;;13.50;2.45;;;5.30;99.90;;;;;;5166411;27;20038;-58
2023/04/25 04:37:51;;;;;;;11.90;2.45;;;5.30;99.90;;;;;;5166185;27;20443;-57
2023/04/25 04:40:18;;;;;;;11.38;2.60;;;5.20;99.90;;;;;;5152880;27;20060;-53
2023/04/25 04:42:45;;;;;;;11.05;1.90;;;5.20;99.90;;;;;;5152214;27;20526;-55
2023/04/25 04:45:12;;;;;;;12.70;1.75;;;5.20;99.90;;;;;;5134486;27;20127;-56
2023/04/25 04:47:39;;;;;;;13.85;1.92;;;5.20;99.90;;;;;;5132380;27;20095;-57
2023/04/25 04:50:08;;;;;;;9.38;2.00;;;5.20;99.90;;;;;;5141502;27;20034;-51
2023/04/25 04:52:37;;;;;;;10.93;2.08;;;5.10;99.90;;;;;;5132942;27;20046;-54
2023/04/25 04:55:04;;;;;;;15.15;2.22;;;5.20;99.90;;;;;;5159587;27;20041;-57
2023/04/25 04:57:30;;;;;;;10.88;1.90;;;5.10;99.90;;;;;;5159043;27;20035;-54
2023/04/25 04:59:56;;;;;;;11.65;2.08;;;5.10;99.90;;;;;;5150669;27;20062;-53
2023/04/25 05:02:22;;;;;;;11.68;1.70;;;5.10;99.90;;;;;;5171318;27;20026;-54
2023/04/25 05:04:48;;;;;;;8.57;1.70;;;5.10;99.90;;;;;;5156287;27;20557;-54
2023/04/25 05:07:14;;;;;;;12.20;2.25;;;5.20;99.90;;;;;;5166254;27;20042;-55
2023/04/25 05:09:40;;;;;;;7.38;1.75;;;5.10;99.90;;;;;;5121768;27;20559;-56
2023/04/25 05:12:06;;;;;;;13.18;1.65;;;5.10;99.90;;;;;;5154880;27;20402;-58
2023/04/25 05:14:31;;;;;;;12.23;2.25;;;5.10;99.90;;;;;;5135380;27;20042;-57
2023/04/25 05:16:58;;;;;;;8.70;1.75;;;5.10;99.90;;;;;;5113390;27;20050;-56
2023/04/25 05:19:24;;;;;;;11.13;2.08;;;5.10;99.90;;;;;;5138335;27;20046;-55
2023/04/25 05:21:50;;;;;;;7.05;1.67;;;5.10;99.90;;;;;;5171353;27;20072;-56
2023/04/25 05:24:16;;;;;;;11.98;2.40;;;5.10;99.90;;;;;;5141401;27;20034;-56
2023/04/25 05:26:41;;;;;;;9.05;1.60;;;5.00;99.90;;;;;;5148440;27;20041;-56
2023/04/25 05:29:07;;;;;;;9.65;1.83;;;5.10;99.90;;;;;;5169935;27;20038;-56
2023/04/25 05:31:33;;;;;;;10.50;1.92;;;5.00;99.90;;;;;;5152986;27;20039;-56
2023/04/25 05:33:59;;;;;;;11.00;1.73;;;5.00;99.90;;;;;;5158898;27;20041;-54
2023/04/25 05:36:25;;;;;;;6.80;1.67;;;5.10;99.90;;;;;;5146280;27;21020;-54
2023/04/25 05:38:51;;;;;;;13.93;1.90;;;5.20;99.90;;;;;;5119305;27;20516;-55
2023/04/25 05:41:16;;;;;;;9.70;2.08;;;5.30;99.90;;;;;;5153033;27;20039;-56
2023/04/25 05:43:46;;;;;;;12.98;2.13;;;5.40;99.90;;;;;;5164998;27;20070;-57
2023/04/25 05:46:12;;;;;;;13.70;1.77;;;5.50;99.90;;;;;;5158644;27;20130;-57
2023/04/25 05:48:40;;;;;;;14.10;2.22;;;5.60;99.90;;;;;;5165532;27;20041;-55
2023/04/25 05:51:05;;;;;;;10.45;2.22;;;5.70;99.90;;;;;;5159471;27;20049;-54
2023/04/25 05:53:31;;;;;;;10.25;2.00;;;5.70;99.90;;;;;;5175052;27;20042;-56
2023/04/25 05:55:57;;;;;;;13.82;2.10;;;5.80;99.90;;;;;;5165728;27;20047;-54
2023/04/25 05:58:22;;;;;;;11.05;2.05;;;5.70;99.90;;;;;;5162503;27;20037;-53
2023/04/25 06:00:48;;;;;;;13.98;1.88;;;5.80;99.90;;;;;;5146149;27;20037;-56
2023/04/25 06:03:15;;;;;;;11.43;1.65;;;5.70;99.90;;;;;;5169781;27;20019;-58
2023/04/25 06:05:43;;;;;;;9.52;1.58;;;5.70;99.90;;;;;;5152243;27;20043;-56
2023/04/25 06:08:10;;;;;;;12.45;2.58;;;5.70;99.90;;;;;;5144336;27;20083;-52
2023/04/25 06:10:36;;;;;;;8.35;1.90;;;6.30;99.90;;;;;;5169197;27;20433;-57
2023/04/25 06:13:02;;;;;;;15.00;1.55;;;5.60;99.90;;;;;;5167111;27;20121;-53
2023/04/25 06:15:28;;;;;;;10.52;1.98;;;5.60;99.90;;;;;;5170940;27;20192;-53
2023/04/25 06:17:54;;;;;;;10.90;2.05;;;5.60;99.90;;;;;;5170867;27;20034;-55
2023/04/25 06:20:22;;;;;;;13.02;2.85;;;5.60;99.90;;;;;;5165704;27;20050;-55
2023/04/25 06:22:49;;;;;;;11.90;1.98;;;5.60;99.90;;;;;;5141119;27;20031;-54
2023/04/25 06:25:15;;;;;;;7.75;1.50;;;5.70;99.90;;;;;;5148179;27;20042;-53
2023/04/25 06:27:41;;;;;;;9.50;1.63;;;5.50;99.90;;;;;;5143681;27;20563;-54
2023/04/25 06:30:07;;;;;;;8.50;1.48;;;5.50;99.90;;;;;;5145432;27;20039;-55
2023/04/25 06:32:34;;;;;;;7.68;1.42;;;5.60;99.90;;;;;;5167885;27;20070;-56
2023/04/25 06:35:00;;;;;;;11.57;1.67;;;5.70;99.90;;;;;;5143312;27;20055;-51
2023/04/25 06:37:26;;;;;;;10.68;1.70;;;5.70;99.90;;;;;;5149419;27;20040;-52
2023/04/25 06:39:51;;;;;;;9.23;1.60;;;5.80;99.90;;;;;;5141881;27;20042;-57
2023/04/25 06:42:17;;;;;;;10.15;1.63;;;6.10;99.90;;;;;;5155240;27;20026;-56
2023/04/25 06:44:43;;;;;;;11.02;2.42;;;6.20;99.90;;;;;;5168102;27;20486;-57
2023/04/25 06:47:09;;;;;;;9.23;1.75;;;6.20;99.90;;;;;;5159788;27;20137;-55
2023/04/25 06:49:34;;;;;;;12.57;1.95;;;6.30;99.90;;;;;;5150114;27;20026;-56
2023/04/25 06:52:00;;;;;;;10.70;2.13;;;6.50;99.90;;;;;;5147417;27;20066;-53
2023/04/25 06:54:28;;;;;;;13.30;2.35;;;6.70;99.90;;;;;;5170864;27;20045;-55
2023/04/25 06:56:54;;;;;;;10.25;2.05;;;6.80;99.90;;;;;;5133690;27;20438;-54
2023/04/25 06:59:20;;;;;;;7.47;1.98;;;7.00;99.90;;;;;;5151270;27;20336;-56
2023/04/25 07:01:45;;;;;;;11.27;1.65;;;6.90;99.90;;;;;;5166319;27;20075;-56
2023/04/25 07:04:11;;;;;;;15.10;1.80;;;6.90;99.90;;;;;;5171585;27;20823;-57
2023/04/25 07:06:42;;;;;;;12.35;2.17;;;7.00;99.90;;;;;;5161110;27;20039;-53
2023/04/25 07:09:09;;;;;;;13.90;3.33;;;6.90;99.90;;;;;;5153066;27;20038;-52
2023/04/25 07:11:35;;;;;;;10.73;2.65;;;6.90;99.90;;;;;;5174025;27;20038;-56
2023/04/25 07:14:01;;;;;;;12.90;2.40;;;6.90;99.90;;;;;;5142161;27;20027;-55
2023/04/25 07:16:28;;;;;;;12.07;2.80;;;6.90;99.90;;;;;;5147848;27;20026;-56
2023/04/25 07:18:53;;;;;;;8.48;2.45;;;6.90;99.90;;;;;;5151972;27;20476;-56
2023/04/25 07:21:19;;;;;;;9.80;2.47;;;6.90;99.90;;;;;;5154913;27;20043;-56
2023/04/25 07:23:45;;;;;;;15.35;2.60;;;7.00;99.90;;;;;;5156706;27;20143;-55
2023/04/25 07:26:11;;;;;;;14.18;2.95;;;7.00;99.90;;;;;;5153984;27;20030;-57
2023/04/25 07:28:36;;;;;;;12.88;3.20;;;7.00;99.90;;;;;;5154204;27;20062;-53
2023/04/25 07:31:02;;;;;;;11.25;3.25;;;7.00;99.90;;;;;;5150847;27;20070;-57
2023/04/25 07:33:29;;;;;;;14.65;3.67;;;7.00;99.90;;;;;;5155143;27;20127;-54
2023/04/25 07:35:55;;;;;;;11.65;3.25;;;7.00;99.90;;;;;;5154215;27;20039;-55
2023/04/25 07:38:21;;;;;;;16.38;3.35;;;7.00;99.90;;;;;;5152565;27;20470;-57
2023/04/25 07:40:50;;;;;;;14.13;3.28;;;7.00;99.90;;;;;;5150906;27;20172;-56
2023/04/25 07:43:16;;;;;;;15.75;2.67;;;7.00;99.90;;;;;;5129854;27;20134;-54
2023/04/25 07:45:46;;;;;;;13.10;2.40;;;7.00;99.90;;;;;;5152362;27;20377;-55
2023/04/25 07:48:16;;;;;;;18.42;2.42;;;7.00;99.90;;;;;;5129494;27;20128;-55
2023/04/25 07:50:41;;;;;;;16.02;2.58;;;7.00;99.90;;;;;;5130289;27;20038;-55
2023/04/25 07:53:07;;;;;;;9.35;1.60;;;7.10;99.90;;;;;;5154594;27;20401;-56
2023/04/25 07:55:33;;;;;;;9.13;1.70;;;7.30;99.90;;;;;;5156296;27;20491;-57
2023/04/25 07:57:58;;;;;;;10.60;2.33;;;7.40;99.90;;;;;;5149661;27;20485;-55
2023/04/25 08:00:24;;;;;;;10.02;1.60;;;7.40;99.90;;;;;;5155340;27;20045;-55
2023/04/25 08:02:50;;;;;;;15.80;1.92;;;7.50;99.90;;;;;;5154337;27;20049;-56
2023/04/25 08:05:16;;;;;;;8.15;1.35;;;7.70;99.90;;;;;;5156960;27;20022;-53
2023/04/25 08:07:43;;;;;;;6.82;1.40;;;7.80;99.90;;;;;;5155454;27;20713;-56
2023/04/25 08:10:09;;;;;;;9.82;1.80;;;7.80;99.90;;;;;;5153129;27;20049;-58
2023/04/25 08:12:35;;;;;;;6.82;1.48;;;7.70;99.90;;;;;;5153774;27;20062;-55
2023/04/25 08:15:00;;;;;;;11.57;1.70;;;7.50;99.90;;;;;;5152975;27;20508;-57
2023/04/25 08:17:27;;;;;;;9.63;1.40;;;7.30;99.90;;;;;;5154134;27;20038;-54
2023/04/25 08:19:52;;;;;;;6.32;1.27;;;7.10;99.90;;;;;;5131672;27;20794;-54
2023/04/25 08:22:18;;;;;;;5.18;1.20;;;6.90;99.90;;;;;;5155004;27;20027;-54
2023/04/25 08:24:44;;;;;;;7.80;1.40;;;6.90;99.90;;;;;;5154273;27;20037;-53
2023/04/25 08:27:09;;;;;;;11.60;3.03;;;7.00;99.90;;;;;;5128940;27;20038;-57
2023/04/25 08:29:35;;;;;;;10.00;1.75;;;6.90;99.90;;;;;;5128167;27;20035;-57
2023/04/25 08:32:01;;;;;;;13.27;1.83;;;7.00;99.90;;;;;;5152785;27;20109;-56
2023/04/25 08:34:26;;;;;;;7.30;2.08;;;7.10;99.90;;;;;;5154135;27;20026;-57
2023/04/25 08:36:52;;;;;;;10.38;1.75;;;7.00;99.90;;;;;;5110071;27;20031;-53
2023/04/25 08:39:18;;;;;;;13.80;3.13;;;7.10;99.90;;;;;;5155057;27;20489;-54
2023/04/25 08:41:45;;;;;;;24.40;7.32;;;7.10;99.90;;;;;;5143574;27;20043;-55
2023/04/25 08:44:11;;;;;;;27.90;10.20;;;7.10;99.90;;;;;;5135270;27;20038;-56
2023/04/25 08:46:41;;;;;;;23.38;6.07;;;7.20;99.90;;;;;;5133459;27;20042;-54
2023/04/25 08:49:09;;;;;;;11.85;2.47;;;7.30;99.90;;;;;;5153982;27;20054;-55
2023/04/25 08:51:38;;;;;;;11.70;1.98;;;7.50;99.90;;;;;;5151169;27;20524;-55
2023/04/25 08:54:11;;;;;;;8.95;1.35;;;7.70;99.90;;;;;;5154037;27;23959;-55
2023/04/25 08:56:43;;;;;;;9.95;1.58;;;7.90;99.90;;;;;;5152825;27;20035;-53
2023/04/25 08:59:11;;;;;;;6.95;1.45;;;8.00;99.90;;;;;;5152434;27;20039;-57
2023/04/25 09:01:36;;;;;;;14.85;1.60;;;8.20;99.90;;;;;;5154171;27;20053;-54
2023/04/25 09:04:02;;;;;;;9.20;1.70;;;8.40;99.90;;;;;;5153667;27;20034;-55
2023/04/25 09:06:32;;;;;;;9.85;2.40;;;8.60;99.90;;;;;;5151238;27;20034;-54
2023/04/25 09:09:05;;;;;;;15.85;1.95;;;8.90;99.90;;;;;;5155326;27;20038;-53
2023/04/25 09:11:32;;;;;;;10.50;1.90;;;9.10;99.90;;;;;;5154057;27;20121;-57
2023/04/25 09:14:15;;;;;;;10.90;1.65;;;9.20;99.90;;;;;;5150146;27;20030;-55
2023/04/25 09:16:55;;;;;;;15.45;3.08;;;9.20;99.90;;;;;;5156105;27;20434;-55
2023/04/25 09:19:26;;;;;;;10.18;3.45;;;9.10;99.90;;;;;;5158318;27;20113;-55
2023/04/25 09:21:58;;;;;;;10.88;2.20;;;9.00;99.90;;;;;;5153349;27;20057;-57
2023/04/25 09:24:39;;;;;;;11.32;1.90;;;8.90;99.90;;;;;;5154422;27;20034;-56
2023/04/25 09:27:10;;;;;;;12.63;2.45;;;8.70;99.90;;;;;;5151902;27;20037;-54
2023/04/25 09:29:38;;;;;;;9.30;1.98;;;8.70;99.90;;;;;;5154158;27;20106;-53
2023/04/25 09:32:24;;;;;;;9.57;1.50;;;8.90;99.90;;;;;;5154904;27;20035;-55
2023/04/25 09:34:52;;;;;;;6.72;1.77;;;8.90;99.90;;;;;;5166948;27;20378;-56
2023/04/25 09:37:28;;;;;;;12.45;2.03;;;9.10;99.90;;;;;;5166215;27;20026;-57
2023/04/25 09:39:56;;;;;;;6.25;1.63;;;9.20;99.90;;;;;;5168843;27;20034;-56
2023/04/25 09:42:23;;;;;;;7.25;1.45;;;9.30;99.90;;;;;;5158732;27;20065;-54
2023/04/25 09:44:52;;;;;;;7.43;1.35;;;9.50;99.90;;;;;;5161130;27;20031;-57
2023/04/25 09:47:18;;;;;;;4.28;1.00;;;9.60;99.90;;;;;;5170680;27;20473;-55
2023/04/25 09:49:44;;;;;;;6.00;1.20;;;9.60;99.90;;;;;;5148310;27;20043;-57
2023/04/25 09:52:15;;;;;;;5.53;1.10;;;9.70;99.90;;;;;;5167750;27;20034;-58
2023/04/25 09:54:41;;;;;;;8.68;1.20;;;9.70;99.90;;;;;;5157972;27;20042;-54
2023/04/25 09:57:11;;;;;;;7.97;1.30;;;9.70;99.90;;;;;;5135470;27;20050;-58
2023/04/25 09:59:42;;;;;;;7.22;1.42;;;9.80;99.90;;;;;;5145409;27;20062;-56
2023/04/25 10:02:09;;;;;;;7.10;1.30;;;10.00;99.90;;;;;;5163147;27;20050;-58
2023/04/25 10:04:36;;;;;;;5.05;1.40;;;10.00;99.90;;;;;;5162802;27;20040;-53
2023/04/25 10:07:05;;;;;;;5.93;1.30;;;10.10;99.90;;;;;;5136502;27;20092;-59
2023/04/25 10:09:33;;;;;;;12.05;1.98;;;10.20;99.90;;;;;;5115476;27;20068;-60
2023/04/25 10:12:00;;;;;;;8.90;1.67;;;10.20;99.90;;;;;;5159223;27;20085;-57
2023/04/25 10:14:26;;;;;;;6.57;1.50;;;10.40;99.90;;;;;;5159390;27;20038;-56
2023/04/25 10:16:53;;;;;;;7.13;1.63;;;10.60;99.90;;;;;;5158626;27;20148;-57
2023/04/25 10:19:20;;;;;;;9.65;1.70;;;10.60;99.90;;;;;;5161674;27;20386;-56
2023/04/25 10:21:52;;;;;;;7.47;1.77;;;10.70;99.90;;;;;;5151097;27;20117;-54
2023/04/25 10:24:19;;;;;;;14.48;2.30;;;10.70;99.90;;;;;;5149867;27;20039;-59
2023/04/25 10:26:46;;;;;;;14.63;2.40;;;10.50;99.90;;;;;;5115341;27;20063;-57
2023/04/25 10:29:12;;;;;;;10.68;2.65;;;9.90;99.90;;;;;;5154540;27;20071;-57
2023/04/25 10:31:47;;;;;;;9.02;2.20;;;9.30;99.90;;;;;;5150224;27;20035;-58
2023/04/25 10:34:13;;;;;;;7.38;1.98;;;8.80;99.90;;;;;;5133106;27;20054;-57
2023/04/25 10:36:39;;;;;;;9.27;2.08;;;8.60;99.90;;;;;;5161707;27;20030;-53
2023/04/25 10:39:07;;;;;;;9.63;1.85;;;8.50;99.90;;;;;;5131500;27;20586;-56
2023/04/25 10:41:46;;;;;;;8.43;1.50;;;8.50;99.90;;;;;;5156683;27;20057;-58
2023/04/25 10:44:14;;;;;;;6.57;1.50;;;8.60;99.90;;;;;;5157539;27;20023;-57
2023/04/25 10:46:40;;;;;;;6.15;1.35;;;8.70;99.90;;;;;;5164947;27;20048;-58
2023/04/25 10:49:09;;;;;;;5.75;1.27;;;8.70;99.90;;;;;;5168350;27;20117;-56
2023/04/25 10:51:36;;;;;;;6.50;1.58;;;8.80;99.90;;;;;;5167895;27;20473;-57
2023/04/25 10:54:03;;;;;;;8.35;1.73;;;8.80;99.90;;;;;;5167271;27;20099;-57
2023/04/25 10:56:35;;;;;;;6.05;1.42;;;8.80;99.90;;;;;;5169669;27;20030;-58
2023/04/25 10:59:04;;;;;;;8.57;1.52;;;8.90;99.90;;;;;;5167862;27;20035;-56
2023/04/25 11:01:44;;;;;;;11.63;1.63;;;8.80;99.90;;;;;;5168518;27;20539;-59
2023/04/25 11:04:30;;;;;;;8.93;1.95;;;8.80;99.90;;;;;;5162939;27;20035;-58
2023/04/25 11:07:04;;;;;;;8.60;1.55;;;8.90;99.90;;;;;;5131306;27;20038;-59
2023/04/25 11:09:30;;;;;;;6.03;1.45;;;9.10;99.90;;;;;;5162371;27;20587;-57
2023/04/25 11:11:58;;;;;;;11.88;1.70;;;9.40;99.90;;;;;;5165326;27;20026;-59
2023/04/25 11:14:24;;;;;;;9.45;1.73;;;9.70;99.90;;;;;;5162925;27;20069;-60
2023/04/25 11:16:57;;;;;;;6.97;1.40;;;9.90;99.90;;;;;;5169297;27;20087;-59
2023/04/25 11:19:24;;;;;;;7.97;1.80;;;10.10;99.90;;;;;;5161384;27;20101;-57
2023/04/25 11:21:50;;;;;;;10.07;1.70;;;10.40;99.90;;;;;;5168187;27;20268;-57
2023/04/25 11:24:17;;;;;;;9.90;1.80;;;10.60;99.90;;;;;;5163870;27;20065;-58
2023/04/25 11:26:43;;;;;;;5.53;1.15;;;10.60;99.90;;;;;;5172452;27;20030;-59
2023/04/25 11:29:09;;;;;;;5.53;1.30;;;10.50;99.90;;;;;;5171057;27;20086;-57
2023/04/25 11:31:35;;;;;;;7.80;1.48;;;10.60;99.90;;;;;;5172330;27;20728;-57
2023/04/25 11:34:00;;;;;;;5.72;1.23;;;10.70;99.90;;;;;;5168165;27;20126;-56
2023/04/25 11:36:27;;;;;;;5.60;1.40;;;10.90;99.90;;;;;;5151053;27;20113;-55
2023/04/25 11:38:54;;;;;;;6.38;1.67;;;11.10;99.90;;;;;;5136624;27;20069;-59
2023/04/25 11:41:20;;;;;;;6.43;1.73;;;11.30;99.90;;;;;;5172933;27;20095;-52
2023/04/25 11:43:46;;;;;;;6.68;1.50;;;11.50;99.90;;;;;;5171696;27;20464;-58
2023/04/25 11:46:11;;;;;;;7.55;1.60;;;11.50;99.90;;;;;;5173468;27;20042;-57
2023/04/25 11:48:39;;;;;;;7.85;1.63;;;11.60;99.90;;;;;;5172595;27;20392;-57
2023/04/25 11:51:05;;;;;;;6.53;1.38;;;11.60;99.90;;;;;;5173339;27;20090;-58
2023/04/25 11:53:30;;;;;;;5.82;1.40;;;11.60;99.90;;;;;;5172250;27;20046;-58
2023/04/25 11:55:57;;;;;;;5.03;1.60;;;11.60;99.90;;;;;;5165418;27;20129;-54
2023/04/25 11:58:23;;;;;;;9.15;1.85;;;11.60;99.90;;;;;;5169452;27;20057;-59
2023/04/25 12:00:48;;;;;;;6.68;1.55;;;11.50;99.90;;;;;;5160170;27;20042;-58
2023/04/25 12:03:14;;;;;;;6.55;1.52;;;10.90;99.90;;;;;;5167600;27;20037;-56
2023/04/25 12:05:40;;;;;;;5.32;1.08;;;10.10;99.90;;;;;;5171184;27;20034;-53
2023/04/25 12:08:15;;;;;;;6.05;1.00;;;9.20;99.90;;;;;;5157221;27;20037;-59
2023/04/25 12:10:44;;;;;;;5.40;1.17;;;8.60;99.90;;;;;;5169577;27;20136;-55
2023/04/25 12:13:23;;;;;;;4.63;1.00;;;8.40;99.90;;;;;;5162640;27;20035;-59
2023/04/25 12:15:49;;;;;;;6.32;1.30;;;8.30;99.90;;;;;;5144114;27;20074;-58
2023/04/25 12:18:18;;;;;;;9.02;1.60;;;8.30;99.90;;;;;;5144649;27;20038;-56
2023/04/25 12:20:44;;;;;;;7.55;1.60;;;8.30;99.90;;;;;;5158562;27;20466;-58
2023/04/25 12:23:11;;;;;;;10.23;1.95;;;8.40;99.90;;;;;;5154083;27;20170;-53
2023/04/25 12:25:41;;;;;;;8.25;1.58;;;8.50;99.90;;;;;;5164170;27;20031;-57
2023/04/25 12:28:20;;;;;;;9.77;2.28;;;8.80;99.90;;;;;;5155308;27;20178;-55
2023/04/25 12:30:58;;;;;;;7.97;2.40;;;9.00;99.90;;;;;;5161164;27;20081;-57
2023/04/25 12:33:30;;;;;;;9.40;2.63;;;9.40;99.90;;;;;;5120284;27;20043;-57
2023/04/25 12:35:57;;;;;;;9.70;2.67;;;9.50;99.90;;;;;;5171435;27;20042;-54
2023/04/25 12:38:29;;;;;;;8.75;2.33;;;9.70;99.90;;;;;;5172524;27;20109;-58
2023/04/25 12:40:55;;;;;;;6.43;1.50;;;10.10;99.90;;;;;;5171446;27;20041;-54
2023/04/25 12:43:22;;;;;;;6.90;1.70;;;10.50;99.90;;;;;;5139270;27;20049;-56
2023/04/25 12:45:57;;;;;;;7.13;1.40;;;10.70;99.90;;;;;;5153312;27;20058;-59
2023/04/25 12:48:23;;;;;;;7.63;2.03;;;10.70;99.90;;;;;;5163704;27;20079;-57
2023/04/25 12:50:51;;;;;;;7.47;1.90;;;10.60;99.90;;;;;;5163642;27;20040;-56